createdAt,value
2022-07-25T00:00:46.675Z,24.40
2022-07-25T00:03:18.514Z,24.40
2022-07-25T00:05:49.835Z,24.40
2022-07-25T00:08:18.649Z,24.40
2022-07-25T00:10:47.335Z,24.40
2022-07-25T00:13:16.091Z,24.30
2022-07-25T00:15:44.252Z,24.30
2022-07-25T00:18:12.462Z,24.30
2022-07-25T00:20:41.978Z,24.30
2022-07-25T00:23:10.106Z,24.30
2022-07-25T00:25:38.207Z,24.30
2022-07-25T00:28:06.438Z,24.30
2022-07-25T00:30:34.627Z,24.20
2022-07-25T00:33:02.748Z,24.20
2022-07-25T00:35:30.871Z,24.20
2022-07-25T00:38:00.387Z,24.10
2022-07-25T00:40:28.544Z,24.10
2022-07-25T00:42:56.665Z,24.10
2022-07-25T00:45:24.827Z,24.10
2022-07-25T00:47:53.124Z,24.00
2022-07-25T00:50:21.322Z,24.00
2022-07-25T00:52:49.831Z,23.90
2022-07-25T00:55:19.623Z,23.90
2022-07-25T00:57:47.798Z,23.90
2022-07-25T01:00:17.724Z,23.80
2022-07-25T01:02:48.145Z,23.80
2022-07-25T01:05:19.132Z,23.70
2022-07-25T01:07:48.496Z,23.70
2022-07-25T01:10:18.200Z,23.70
2022-07-25T01:12:49.404Z,23.70
2022-07-25T01:15:18.713Z,23.60
2022-07-25T01:17:46.833Z,23.60
2022-07-25T01:20:17.275Z,23.60
2022-07-25T01:22:46.458Z,23.50
2022-07-25T01:25:16.003Z,23.50
2022-07-25T01:27:44.782Z,23.50
2022-07-25T01:30:15.341Z,23.40
2022-07-25T01:32:44.464Z,23.40
2022-07-25T01:35:14.192Z,23.40
2022-07-25T01:37:46.006Z,23.30
2022-07-25T01:40:15.845Z,23.30
2022-07-25T01:42:44.438Z,23.30
2022-07-25T01:45:13.609Z,23.30
2022-07-25T01:47:42.114Z,23.30
2022-07-25T01:50:11.300Z,23.20
2022-07-25T01:52:39.682Z,23.20
2022-07-25T01:55:10.229Z,23.20
2022-07-25T01:57:40.459Z,23.10
2022-07-25T02:00:13.518Z,23.10
2022-07-25T02:02:42.337Z,23.10
2022-07-25T02:05:11.354Z,23.00
2022-07-25T02:07:39.888Z,23.00
2022-07-25T02:10:10.461Z,23.00
2022-07-25T02:12:38.694Z,23.00
2022-07-25T02:15:08.089Z,22.90
2022-07-25T02:17:36.143Z,23.00
2022-07-25T02:20:05.133Z,22.90
2022-07-25T02:22:33.209Z,22.90
2022-07-25T02:25:01.368Z,22.90
2022-07-25T02:27:30.780Z,22.90
2022-07-25T02:29:59.727Z,22.90
2022-07-25T02:32:27.880Z,22.90
2022-07-25T02:34:55.961Z,22.80
2022-07-25T02:37:24.044Z,22.80
2022-07-25T02:39:52.286Z,22.80
2022-07-25T02:42:20.444Z,22.70
2022-07-25T02:44:49.989Z,22.70
2022-07-25T02:47:18.104Z,22.70
2022-07-25T02:49:46.260Z,22.70
2022-07-25T02:52:14.337Z,22.60
2022-07-25T02:54:42.447Z,22.60
2022-07-25T02:57:10.544Z,22.60
2022-07-25T02:59:38.900Z,22.60
2022-07-25T03:02:08.430Z,22.60
2022-07-25T03:04:36.638Z,22.60
2022-07-25T03:07:04.821Z,22.60
2022-07-25T03:09:32.895Z,22.60
2022-07-25T03:12:00.999Z,22.60
2022-07-25T03:14:29.125Z,22.50
2022-07-25T03:16:57.346Z,22.50
2022-07-25T03:19:26.915Z,22.50
2022-07-25T03:21:55.125Z,22.50
2022-07-25T03:24:23.384Z,22.50
2022-07-25T03:26:51.550Z,22.50
2022-07-25T03:29:19.664Z,22.40
2022-07-25T03:31:47.824Z,22.40
2022-07-25T03:34:15.946Z,22.40
2022-07-25T03:36:45.480Z,22.40
2022-07-25T03:39:14.498Z,22.40
2022-07-25T03:41:42.651Z,22.30
2022-07-25T03:44:10.840Z,22.30
2022-07-25T03:46:38.943Z,22.30
2022-07-25T03:49:07.215Z,22.30
2022-07-25T03:51:35.399Z,22.20
2022-07-25T03:54:06.304Z,22.20
2022-07-25T03:56:43.452Z,22.20
2022-07-25T03:59:13.820Z,22.20
2022-07-25T04:01:42.803Z,22.20
2022-07-25T04:04:11.362Z,22.20
2022-07-25T04:06:40.016Z,22.20
2022-07-25T04:09:10.562Z,22.10
2022-07-25T04:11:38.931Z,22.10
2022-07-25T04:14:08.030Z,22.10
2022-07-25T04:16:36.931Z,22.10
2022-07-25T04:19:06.198Z,22.10
2022-07-25T04:21:35.455Z,22.10
2022-07-25T04:24:04.065Z,22.10
2022-07-25T04:26:33.886Z,22.10
2022-07-25T04:29:03.715Z,22.10
2022-07-25T04:31:32.049Z,22.10
2022-07-25T04:34:00.680Z,22.10
2022-07-25T04:36:29.429Z,22.10
2022-07-25T04:38:57.527Z,22.10
2022-07-25T04:41:25.593Z,22.10
2022-07-25T04:43:55.500Z,22.10
2022-07-25T04:46:24.117Z,22.10
2022-07-25T04:48:52.877Z,22.10
2022-07-25T04:51:21.114Z,22.20
2022-07-25T04:53:49.323Z,22.20
2022-07-25T04:56:17.510Z,22.20
2022-07-25T04:58:45.765Z,22.20
2022-07-25T05:01:15.400Z,22.20
2022-07-25T05:03:50.534Z,22.30
2022-07-25T05:06:19.509Z,22.20
2022-07-25T05:08:48.055Z,22.30
2022-07-25T05:11:16.204Z,22.30
2022-07-25T05:13:44.641Z,22.30
2022-07-25T05:16:14.247Z,22.40
2022-07-25T05:18:42.439Z,22.40
2022-07-25T05:21:12.222Z,22.40
2022-07-25T05:23:40.559Z,22.50
2022-07-25T05:26:08.687Z,22.50
2022-07-25T05:28:37.056Z,22.60
2022-07-25T05:31:05.492Z,22.60
2022-07-25T05:33:35.901Z,22.70
2022-07-25T05:36:05.195Z,22.80
2022-07-25T05:38:33.464Z,22.80
2022-07-25T05:41:01.631Z,22.90
2022-07-25T05:43:29.795Z,22.90
2022-07-25T05:46:02.207Z,23.00
2022-07-25T05:48:30.454Z,23.10
2022-07-25T05:51:00.234Z,23.10
2022-07-25T05:53:28.337Z,23.20
2022-07-25T05:55:56.689Z,23.30
2022-07-25T05:58:29.412Z,23.40
2022-07-25T06:00:58.403Z,23.50
2022-07-25T06:03:26.746Z,23.60
2022-07-25T06:05:57.387Z,23.70
2022-07-25T06:08:28.651Z,23.80
2022-07-25T06:10:58.167Z,23.90
2022-07-25T06:13:26.388Z,23.90
2022-07-25T06:15:56.331Z,24.00
2022-07-25T06:18:24.559Z,24.10
2022-07-25T06:20:52.756Z,24.20
2022-07-25T06:23:21.784Z,24.30
2022-07-25T06:25:51.674Z,24.40
2022-07-25T06:28:19.805Z,24.50
2022-07-25T06:30:48.256Z,24.60
2022-07-25T06:33:16.430Z,24.70
2022-07-25T06:35:44.620Z,24.90
2022-07-25T06:38:12.790Z,25.00
2022-07-25T06:40:40.942Z,25.10
2022-07-25T06:43:10.425Z,25.20
2022-07-25T06:45:38.566Z,25.30
2022-07-25T06:48:07.349Z,25.50
2022-07-25T06:50:35.453Z,25.60
2022-07-25T06:53:03.538Z,25.70
2022-07-25T06:55:31.653Z,25.90
2022-07-25T06:57:59.804Z,26.00
2022-07-25T07:00:29.894Z,26.10
2022-07-25T07:03:01.290Z,26.20
2022-07-25T07:05:31.505Z,26.40
2022-07-25T07:08:00.269Z,26.50
2022-07-25T07:10:29.500Z,26.60
2022-07-25T07:13:08.840Z,26.70
2022-07-25T07:15:39.943Z,26.80
2022-07-25T07:18:08.540Z,26.90
2022-07-25T07:20:36.682Z,27.00
2022-07-25T07:23:04.743Z,27.20
2022-07-25T07:25:34.463Z,27.30
2022-07-25T07:28:03.092Z,27.30
2022-07-25T07:30:58.758Z,27.40
2022-07-25T07:33:20.763Z,27.50
2022-07-25T07:35:48.902Z,27.60
2022-07-25T07:38:18.034Z,27.70
2022-07-25T07:40:46.662Z,27.80
2022-07-25T07:43:14.869Z,27.90
2022-07-25T07:45:43.721Z,28.00
2022-07-25T07:48:11.956Z,28.10
2022-07-25T07:50:41.418Z,28.20
2022-07-25T07:53:09.513Z,28.30
2022-07-25T07:55:45.970Z,28.30
2022-07-25T07:58:18.532Z,28.40
2022-07-25T08:00:48.232Z,28.50
2022-07-25T08:03:21.430Z,28.60
2022-07-25T08:05:57.376Z,28.70
2022-07-25T08:08:30.609Z,28.80
2022-07-25T08:10:59.927Z,28.80
2022-07-25T08:13:32.144Z,29.00
2022-07-25T08:16:04.633Z,29.00
2022-07-25T08:18:42.157Z,29.10
2022-07-25T08:21:12.338Z,29.20
2022-07-25T08:23:40.456Z,29.30
2022-07-25T08:26:08.728Z,29.40
2022-07-25T08:28:36.932Z,29.50
2022-07-25T08:31:07.633Z,29.60
2022-07-25T08:33:36.083Z,29.60
2022-07-25T08:36:04.779Z,29.70
2022-07-25T08:38:35.412Z,29.90
2022-07-25T08:41:04.623Z,29.90
2022-07-25T08:43:33.918Z,30.00
2022-07-25T08:46:03.579Z,30.20
2022-07-25T08:48:32.058Z,30.20
2022-07-25T08:51:01.234Z,30.30
2022-07-25T08:53:33.318Z,30.40
2022-07-25T08:56:10.685Z,30.50
2022-07-25T08:58:43.998Z,30.50
2022-07-25T09:01:12.970Z,30.60
2022-07-25T09:03:42.901Z,30.60
2022-07-25T09:06:22.564Z,30.80
2022-07-25T09:08:55.631Z,30.80
2022-07-25T09:11:36.154Z,30.90
2022-07-25T09:14:08.843Z,31.00
2022-07-25T09:16:40.858Z,31.10
2022-07-25T09:19:14.555Z,31.20
2022-07-25T09:21:44.726Z,31.30
2022-07-25T09:24:15.926Z,31.40
2022-07-25T09:26:47.834Z,31.50
2022-07-25T09:29:21.058Z,31.60
2022-07-25T09:31:49.723Z,31.70
2022-07-25T09:34:38.836Z,31.80
2022-07-25T09:37:09.375Z,31.90
2022-07-25T09:39:45.318Z,32.00
2022-07-25T09:42:24.583Z,32.10
2022-07-25T09:45:01.023Z,32.10
2022-07-25T09:47:29.243Z,32.10
2022-07-25T09:49:57.777Z,32.20
2022-07-25T09:52:26.240Z,32.20
2022-07-25T09:54:55.598Z,32.30
2022-07-25T09:57:25.904Z,32.30
2022-07-25T09:59:56.050Z,32.40
2022-07-25T10:02:34.441Z,32.50
2022-07-25T10:05:15.464Z,32.50
2022-07-25T10:07:46.787Z,32.60
2022-07-25T10:10:28.152Z,32.60
2022-07-25T10:13:10.481Z,32.70
2022-07-25T10:15:44.572Z,32.70
2022-07-25T10:18:13.783Z,32.70
2022-07-25T10:20:42.475Z,32.80
2022-07-25T10:23:21.898Z,32.90
2022-07-25T10:26:01.491Z,32.90
2022-07-25T10:28:44.039Z,32.90
2022-07-25T10:31:24.842Z,33.00
2022-07-25T10:33:58.199Z,33.00
2022-07-25T10:36:30.070Z,33.10
2022-07-25T10:39:00.385Z,33.20
2022-07-25T10:41:29.924Z,33.20
2022-07-25T10:44:03.774Z,33.30
2022-07-25T10:46:36.283Z,33.40
2022-07-25T10:49:06.709Z,33.40
2022-07-25T10:51:41.144Z,33.50
2022-07-25T10:54:17.727Z,33.70
2022-07-25T10:56:54.424Z,33.80
2022-07-25T10:59:32.178Z,33.80
2022-07-25T11:02:00.982Z,33.90
2022-07-25T11:04:29.135Z,34.00
2022-07-25T11:06:57.253Z,34.00
2022-07-25T11:09:28.037Z,34.10
2022-07-25T11:11:57.452Z,34.20
2022-07-25T11:14:31.200Z,34.30
2022-07-25T11:17:13.027Z,34.30
2022-07-25T11:19:44.512Z,34.30
2022-07-25T11:22:13.626Z,34.40
2022-07-25T11:24:43.714Z,34.40
2022-07-25T11:27:14.739Z,34.40
2022-07-25T11:29:42.666Z,34.50
2022-07-25T11:32:13.287Z,34.60
2022-07-25T11:34:44.058Z,34.60
2022-07-25T11:37:14.476Z,34.70
2022-07-25T11:39:45.015Z,34.70
2022-07-25T11:42:16.385Z,34.70
2022-07-25T11:44:47.890Z,34.70
2022-07-25T11:47:29.175Z,34.70
2022-07-25T11:49:59.133Z,34.80
2022-07-25T11:52:30.139Z,34.80
2022-07-25T11:54:58.887Z,34.80
2022-07-25T11:57:29.164Z,34.90
2022-07-25T11:59:57.871Z,35.00
2022-07-25T12:02:31.109Z,35.00
2022-07-25T12:05:01.700Z,34.90
2022-07-25T12:07:40.768Z,35.00
2022-07-25T12:10:10.868Z,35.00
2022-07-25T12:12:48.668Z,35.00
2022-07-25T12:15:19.963Z,35.00
2022-07-25T12:17:50.104Z,35.00
2022-07-25T12:20:20.163Z,35.00
2022-07-25T12:22:49.817Z,35.00
2022-07-25T12:25:17.931Z,35.00
2022-07-25T12:27:46.678Z,35.00
2022-07-25T12:30:15.338Z,34.90
2022-07-25T12:32:43.904Z,34.90
2022-07-25T12:35:15.387Z,34.80
2022-07-25T12:37:44.677Z,34.80
2022-07-25T12:40:14.351Z,34.70
2022-07-25T12:42:42.846Z,34.70
2022-07-25T12:45:12.150Z,34.60
2022-07-25T12:47:40.659Z,34.60
2022-07-25T12:50:10.115Z,34.60
2022-07-25T12:52:39.639Z,34.50
2022-07-25T12:55:12.429Z,34.50
2022-07-25T12:57:40.674Z,34.40
2022-07-25T13:00:12.546Z,34.30
2022-07-25T13:02:40.895Z,34.20
2022-07-25T13:05:10.202Z,34.10
2022-07-25T13:07:39.808Z,34.00
2022-07-25T13:10:09.146Z,33.80
2022-07-25T13:12:37.583Z,33.70
2022-07-25T13:15:06.588Z,33.60
2022-07-25T13:17:34.959Z,33.50
2022-07-25T13:20:03.197Z,33.40
2022-07-25T13:22:31.345Z,33.30
2022-07-25T13:25:01.056Z,33.20
2022-07-25T13:27:29.169Z,33.20
2022-07-25T13:29:58.159Z,33.10
2022-07-25T13:32:28.513Z,33.10
2022-07-25T13:34:56.802Z,33.00
2022-07-25T13:37:25.038Z,33.00
2022-07-25T13:39:53.115Z,33.00
2022-07-25T13:42:22.859Z,32.90
2022-07-25T13:44:50.970Z,32.90
2022-07-25T13:47:19.221Z,32.90
2022-07-25T13:49:47.607Z,32.90
2022-07-25T13:52:17.187Z,33.00
2022-07-25T13:54:45.327Z,33.00
2022-07-25T13:57:13.644Z,33.10
2022-07-25T13:59:43.367Z,33.10
2022-07-25T14:02:11.691Z,33.20
2022-07-25T14:04:41.244Z,33.20
2022-07-25T14:07:09.396Z,33.20
2022-07-25T14:09:37.965Z,33.30
2022-07-25T14:12:12.962Z,33.30
2022-07-25T14:14:42.512Z,33.40
2022-07-25T14:17:10.825Z,33.40
2022-07-25T14:19:39.027Z,33.40
2022-07-25T14:22:07.397Z,33.50
2022-07-25T14:24:35.521Z,33.50
2022-07-25T14:27:04.104Z,33.60
2022-07-25T14:29:32.327Z,33.60
2022-07-25T14:32:05.178Z,33.60
2022-07-25T14:34:33.756Z,33.70
2022-07-25T14:37:02.617Z,33.70
2022-07-25T14:39:30.684Z,33.70
2022-07-25T14:41:59.522Z,33.80
2022-07-25T14:44:28.828Z,33.80
2022-07-25T14:46:59.311Z,33.80
2022-07-25T14:49:30.511Z,33.80
2022-07-25T14:51:58.845Z,33.80
2022-07-25T14:54:28.563Z,33.80
2022-07-25T14:56:57.552Z,33.80
2022-07-25T14:59:28.089Z,33.80
2022-07-25T15:01:59.043Z,33.80
2022-07-25T15:04:28.656Z,33.80
2022-07-25T15:06:57.070Z,33.90
2022-07-25T15:09:26.832Z,33.90
2022-07-25T15:11:54.990Z,33.90
2022-07-25T15:14:23.349Z,33.90
2022-07-25T15:16:51.520Z,34.00
2022-07-25T15:19:19.917Z,34.00
2022-07-25T15:21:49.556Z,34.00
2022-07-25T15:24:17.702Z,34.00
2022-07-25T15:26:46.059Z,34.00
2022-07-25T15:29:20.504Z,34.00
2022-07-25T15:31:49.237Z,34.00
2022-07-25T15:34:17.541Z,34.00
2022-07-25T15:36:45.767Z,34.00
2022-07-25T15:39:15.551Z,33.90
2022-07-25T15:41:43.834Z,33.90
2022-07-25T15:44:12.003Z,33.90
2022-07-25T15:46:40.361Z,33.80
2022-07-25T15:49:09.591Z,33.80
2022-07-25T15:51:38.010Z,33.80
2022-07-25T15:54:06.940Z,33.80
2022-07-25T15:56:36.553Z,33.70
2022-07-25T15:59:05.142Z,33.70
2022-07-25T16:01:33.615Z,33.70
2022-07-25T16:04:02.121Z,33.70
2022-07-25T16:06:30.381Z,33.70
2022-07-25T16:08:58.798Z,33.70
2022-07-25T16:11:27.038Z,33.70
2022-07-25T16:13:56.804Z,33.70
2022-07-25T16:16:25.800Z,33.70
2022-07-25T16:18:54.317Z,33.70
2022-07-25T16:21:22.776Z,33.80
2022-07-25T16:23:51.045Z,33.80
2022-07-25T16:26:20.315Z,33.80
2022-07-25T16:28:49.991Z,33.70
2022-07-25T16:31:19.776Z,33.70
2022-07-25T16:33:48.159Z,33.70
2022-07-25T16:36:16.448Z,33.60
2022-07-25T16:38:46.887Z,33.40
2022-07-25T16:41:15.216Z,33.40
2022-07-25T16:43:43.356Z,33.20
2022-07-25T16:46:12.101Z,33.10
2022-07-25T16:48:41.904Z,32.90
2022-07-25T16:51:10.159Z,32.70
2022-07-25T16:53:38.323Z,32.60
2022-07-25T16:56:06.893Z,32.40
2022-07-25T16:58:35.789Z,32.20
2022-07-25T17:01:04.419Z,32.10
2022-07-25T17:03:32.588Z,31.90
2022-07-25T17:06:02.332Z,31.80
2022-07-25T17:08:31.912Z,31.70
2022-07-25T17:11:00.141Z,31.60
2022-07-25T17:13:28.345Z,31.50
2022-07-25T17:15:56.791Z,31.40
2022-07-25T17:18:25.235Z,31.30
2022-07-25T17:20:54.568Z,31.30
2022-07-25T17:23:25.004Z,31.10
2022-07-25T17:25:53.901Z,31.10
2022-07-25T17:28:23.032Z,31.00
2022-07-25T17:30:51.778Z,30.90
2022-07-25T17:33:20.322Z,30.70
2022-07-25T17:35:48.511Z,30.70
2022-07-25T17:38:16.721Z,30.50
2022-07-25T17:40:46.355Z,30.40
2022-07-25T17:43:14.463Z,30.30
2022-07-25T17:45:42.719Z,30.20
2022-07-25T17:48:10.895Z,30.20
2022-07-25T17:50:39.119Z,30.10
2022-07-25T17:53:07.292Z,30.00
2022-07-25T17:55:38.898Z,30.00
2022-07-25T17:58:09.001Z,29.90
2022-07-25T18:00:37.171Z,29.90
2022-07-25T18:03:06.326Z,29.80
2022-07-25T18:05:34.610Z,29.80
2022-07-25T18:08:03.965Z,29.70
2022-07-25T18:10:32.363Z,29.60
2022-07-25T18:13:02.077Z,29.50
2022-07-25T18:15:31.767Z,29.50
2022-07-25T18:18:00.126Z,29.40
2022-07-25T18:20:29.253Z,29.40
2022-07-25T18:22:58.749Z,29.30
2022-07-25T18:25:27.379Z,29.30
2022-07-25T18:27:55.537Z,29.30
2022-07-25T18:30:29.014Z,29.20
2022-07-25T18:32:58.973Z,29.10
2022-07-25T18:35:27.243Z,29.10
2022-07-25T18:37:55.515Z,29.10
2022-07-25T18:40:23.975Z,29.00
2022-07-25T18:42:52.192Z,28.90
2022-07-25T18:45:20.553Z,28.90
2022-07-25T18:47:49.980Z,28.80
2022-07-25T18:50:20.600Z,28.70
2022-07-25T18:52:48.953Z,28.70
2022-07-25T18:55:17.135Z,28.50
2022-07-25T18:57:45.295Z,28.50
2022-07-25T19:00:13.787Z,28.40
2022-07-25T19:02:42.144Z,28.40
2022-07-25T19:05:10.870Z,28.30
2022-07-25T19:07:41.231Z,28.30
2022-07-25T19:10:10.377Z,28.20
2022-07-25T19:12:39.020Z,28.10
2022-07-25T19:15:08.640Z,28.00
2022-07-25T19:17:37.747Z,27.90
2022-07-25T19:20:07.330Z,27.80
2022-07-25T19:22:35.632Z,27.70
2022-07-25T19:25:08.399Z,27.70
2022-07-25T19:27:36.669Z,27.60
2022-07-25T19:30:07.091Z,27.60
2022-07-25T19:32:35.731Z,27.50
2022-07-25T19:35:04.174Z,27.50
2022-07-25T19:37:33.560Z,27.40
2022-07-25T19:40:02.049Z,27.40
2022-07-25T19:42:31.851Z,27.30
2022-07-25T19:45:00.247Z,27.30
2022-07-25T19:47:28.810Z,27.20
2022-07-25T19:49:57.201Z,27.20
2022-07-25T19:52:25.533Z,27.10
2022-07-25T19:54:54.581Z,27.10
2022-07-25T19:57:22.857Z,27.00
2022-07-25T19:59:52.632Z,27.00
2022-07-25T20:02:21.103Z,27.00
2022-07-25T20:04:49.545Z,26.90
2022-07-25T20:07:17.781Z,26.90
2022-07-25T20:09:46.255Z,26.90
2022-07-25T20:12:14.700Z,26.90
2022-07-25T20:14:43.315Z,26.80
2022-07-25T20:17:13.120Z,26.80
2022-07-25T20:19:41.367Z,26.80
2022-07-25T20:22:09.523Z,26.80
2022-07-25T20:24:37.847Z,26.80
2022-07-25T20:27:07.197Z,26.80
2022-07-25T20:29:35.377Z,26.70
2022-07-25T20:32:04.618Z,26.70
2022-07-25T20:34:34.528Z,26.70
2022-07-25T20:37:02.688Z,26.70
2022-07-25T20:39:31.016Z,26.70
2022-07-25T20:41:59.156Z,26.70
2022-07-25T20:44:27.400Z,26.60
2022-07-25T20:46:55.585Z,26.60
2022-07-25T20:49:25.173Z,26.60
2022-07-25T20:51:55.358Z,26.50
2022-07-25T20:54:24.016Z,26.50
2022-07-25T20:56:53.037Z,26.40
2022-07-25T20:59:21.468Z,26.40
2022-07-25T21:01:49.825Z,26.40
2022-07-25T21:04:19.061Z,26.30
2022-07-25T21:06:47.344Z,26.30
2022-07-25T21:09:18.060Z,26.30
2022-07-25T21:11:46.220Z,26.20
2022-07-25T21:14:14.373Z,26.20
2022-07-25T21:16:42.758Z,26.20
2022-07-25T21:19:11.278Z,26.20
2022-07-25T21:21:39.864Z,26.20
2022-07-25T21:24:09.374Z,26.10
2022-07-25T21:26:39.503Z,26.10
2022-07-25T21:29:08.369Z,26.10
2022-07-25T21:31:36.942Z,26.10
2022-07-25T21:34:05.366Z,26.10
2022-07-25T21:36:34.178Z,26.10
2022-07-25T21:39:02.436Z,26.00
2022-07-25T21:41:33.690Z,26.10
2022-07-25T21:44:03.221Z,26.10
2022-07-25T21:46:31.702Z,26.10
2022-07-25T21:49:17.160Z,26.10
2022-07-25T21:52:04.261Z,26.10
2022-07-25T21:54:32.480Z,26.10
2022-07-25T21:57:00.656Z,26.00
2022-07-25T21:59:30.255Z,26.00
2022-07-25T22:02:00.215Z,26.00
2022-07-25T22:04:28.538Z,26.00
2022-07-25T22:06:56.877Z,26.00
2022-07-25T22:09:25.117Z,26.00
2022-07-25T22:11:55.212Z,26.00
2022-07-25T22:14:23.505Z,25.90
2022-07-25T22:16:52.987Z,25.90
2022-07-25T22:19:22.679Z,25.90
2022-07-25T22:21:51.067Z,25.90
2022-07-25T22:24:19.365Z,25.80
2022-07-25T22:26:47.501Z,25.80
2022-07-25T22:29:15.626Z,25.80
2022-07-25T22:31:44.491Z,25.80
2022-07-25T22:34:14.164Z,25.80
2022-07-25T22:36:42.488Z,25.80
2022-07-25T22:39:11.481Z,25.70
2022-07-25T22:41:40.170Z,25.70
2022-07-25T22:44:09.043Z,25.70
2022-07-25T22:46:37.383Z,25.70
2022-07-25T22:49:06.336Z,25.70
2022-07-25T22:51:36.177Z,25.60
2022-07-25T22:54:05.022Z,25.60
2022-07-25T22:56:33.262Z,25.50
2022-07-25T22:59:01.505Z,25.50
2022-07-25T23:01:29.583Z,25.50
2022-07-25T23:03:57.745Z,25.50
2022-07-25T23:06:26.076Z,25.40
2022-07-25T23:08:56.820Z,25.40
2022-07-25T23:11:25.007Z,25.30
2022-07-25T23:13:53.105Z,25.30
2022-07-25T23:16:21.414Z,25.20
2022-07-25T23:18:49.617Z,25.20
2022-07-25T23:21:17.798Z,25.20
2022-07-25T23:23:46.023Z,25.10
2022-07-25T23:26:15.531Z,25.10
2022-07-25T23:28:43.732Z,25.10
2022-07-25T23:31:11.960Z,25.00
2022-07-25T23:33:40.108Z,25.00
2022-07-25T23:36:08.601Z,24.90
2022-07-25T23:38:36.771Z,24.90
2022-07-25T23:41:05.040Z,24.80
2022-07-25T23:43:54.992Z,24.80
2022-07-25T23:46:27.795Z,24.80
2022-07-25T23:48:58.071Z,24.80
2022-07-25T23:51:26.512Z,24.70
2022-07-25T23:53:54.703Z,24.70
2022-07-25T23:56:22.748Z,24.60
2022-07-25T23:58:52.688Z,24.60
